Meteo Giornale » Osservazioni meteo Stati Uniti (USA) » Wilmington New Castle

ore: 05:51 - Osservazioni Meteo Wilmington New Castle
Lat. 39° 40' N Lon. 75° 36' W Alt. 24 metri s.l.m.

molto_nuvoloso

22 °C

Molto Nuvoloso

Temp. 24 Ore

22 °C

29 °C

Nord

0 Km/h

Dew point 22 °C

Umidità 100 %

Visibilità  10 Km

Il sole sorge alle ore 06:30

Il sole tramonta alle ore 19:33

Data e Ora Cielo e Fenomeni T °C DP °C Um. % Pres. hPa Vis. km Vento km/h
Oggi h: 05:51 molto_nuvoloso Molto Nuvoloso 22 22 100 1016 10 N 0
Oggi h: 04:51 molto_nuvoloso Molto Nuvoloso 22 22 100 1016 10 N 0
Oggi h: 03:51 sereno Sereno 23 22 94 1016 10 S 9.3
Oggi h: 02:51 molto_nuvoloso Molto Nuvoloso 23 22 94 1017 10 S 9.3
Oggi h: 01:51 molto_nuvoloso Molto Nuvoloso 23 22 94 1017 10 S 7.4
Oggi h: 00:51 nuvoloso Nuvoloso 23 22 94 1018 10 N 5.5
Ieri h: 23:51 sereno Sereno 23 22 94 1018 10 N 0
Ieri h: 22:51 poco_nuvoloso Poco Nuvoloso 23 22 94 1018 10 N 5.5
Ieri h: 21:51 sereno Sereno 24 22 88 1018 10 S 9.3
Ieri h: 20:51 coperto Coperto 26 21 73 1018 10 S/SO 7.4
Ieri h: 19:51 coperto Coperto 26 21 73 1018 10 S/SE 9.3
Ieri h: 18:51 coperto Coperto 27 20 65 1018 10 S/SE 11.1
Ieri h: 16:51 poco_nuvoloso Poco Nuvoloso 29 19 54 1019 10 N 5.5
Ieri h: 15:51 molto_nuvoloso Molto Nuvoloso 29 19 54 1019 10 N 5.5
Ieri h: 14:51 poco_nuvoloso Poco Nuvoloso 29 19 54 1019 10 E/NE 7.4
Ieri h: 13:51 molto_nuvoloso Molto Nuvoloso 28 19 58 1020 10 E 9.3
Ieri h: 12:51 molto_nuvoloso Molto Nuvoloso 27 18 57 1020 10 E/SE 9.3
Ieri h: 11:51 sereno Sereno 27 19 61 1020 10 N 0
Ieri h: 10:51 coperto Coperto 24 19 73 1020 10 E 9.3
Ieri h: 09:51 molto_nuvoloso Molto Nuvoloso 24 19 73 1020 10 E 9.3
Ieri h: 08:51 sereno Sereno 24 21 83 1020 10 NE 11.1
Ieri h: 06:51 molto_nuvoloso Molto Nuvoloso 22 21 94 1019 10 N/NE 9.3